sensor_id;sensor_type;location;lat;lon;timestamp;P1;durP1;ratioP1;P2;durP2;ratioP2
23304;SDS011;11821;51.456;8.844;2024-01-10T00:00:40;20.05;;;7.32;;
23304;SDS011;11821;51.456;8.844;2024-01-10T00:03:07;17.60;;;7.88;;
23304;SDS011;11821;51.456;8.844;2024-01-10T00:05:33;18.27;;;7.55;;
23304;SDS011;11821;51.456;8.844;2024-01-10T00:08:00;14.80;;;8.10;;
23304;SDS011;11821;51.456;8.844;2024-01-10T00:10:27;13.98;;;6.18;;
23304;SDS011;11821;51.456;8.844;2024-01-10T00:12:53;12.90;;;5.72;;
23304;SDS011;11821;51.456;8.844;2024-01-10T00:15:20;12.38;;;4.57;;
23304;SDS011;11821;51.456;8.844;2024-01-10T00:17:46;9.90;;;6.03;;
23304;SDS011;11821;51.456;8.844;2024-01-10T00:20:13;11.10;;;6.38;;
23304;SDS011;11821;51.456;8.844;2024-01-10T00:22:39;11.73;;;6.22;;
23304;SDS011;11821;51.456;8.844;2024-01-10T00:25:06;11.73;;;5.57;;
23304;SDS011;11821;51.456;8.844;2024-01-10T00:27:33;12.48;;;6.53;;
23304;SDS011;11821;51.456;8.844;2024-01-10T00:29:59;11.93;;;5.72;;
23304;SDS011;11821;51.456;8.844;2024-01-10T00:32:26;13.57;;;6.30;;
23304;SDS011;11821;51.456;8.844;2024-01-10T00:34:52;12.77;;;6.70;;
23304;SDS011;11821;51.456;8.844;2024-01-10T00:37:19;13.77;;;6.40;;
23304;SDS011;11821;51.456;8.844;2024-01-10T00:39:45;13.55;;;5.72;;
23304;SDS011;11821;51.456;8.844;2024-01-10T00:42:12;10.38;;;5.30;;
23304;SDS011;11821;51.456;8.844;2024-01-10T00:44:39;10.55;;;5.95;;
23304;SDS011;11821;51.456;8.844;2024-01-10T00:47:05;12.10;;;5.25;;
23304;SDS011;11821;51.456;8.844;2024-01-10T00:49:32;12.13;;;7.20;;
23304;SDS011;11821;51.456;8.844;2024-01-10T00:51:58;19.65;;;6.90;;
23304;SDS011;11821;51.456;8.844;2024-01-10T00:54:25;10.93;;;5.55;;
23304;SDS011;11821;51.456;8.844;2024-01-10T00:56:51;23.45;;;7.18;;
23304;SDS011;11821;51.456;8.844;2024-01-10T00:59:18;13.55;;;6.38;;
23304;SDS011;11821;51.456;8.844;2024-01-10T01:01:45;17.10;;;8.23;;
23304;SDS011;11821;51.456;8.844;2024-01-10T01:04:12;18.40;;;7.60;;
23304;SDS011;11821;51.456;8.844;2024-01-10T01:06:38;28.17;;;9.10;;
23304;SDS011;11821;51.456;8.844;2024-01-10T01:09:05;15.48;;;7.53;;
23304;SDS011;11821;51.456;8.844;2024-01-10T01:11:31;16.15;;;7.25;;
23304;SDS011;11821;51.456;8.844;2024-01-10T01:13:58;15.02;;;8.32;;
23304;SDS011;11821;51.456;8.844;2024-01-10T01:16:25;24.33;;;8.95;;
23304;SDS011;11821;51.456;8.844;2024-01-10T01:18:51;14.80;;;6.93;;
23304;SDS011;11821;51.456;8.844;2024-01-10T01:21:18;17.55;;;8.45;;
23304;SDS011;11821;51.456;8.844;2024-01-10T01:23:44;12.68;;;7.28;;
23304;SDS011;11821;51.456;8.844;2024-01-10T01:26:11;9.95;;;6.45;;
23304;SDS011;11821;51.456;8.844;2024-01-10T01:28:40;11.88;;;7.00;;
23304;SDS011;11821;51.456;8.844;2024-01-10T01:31:06;18.02;;;8.98;;
23304;SDS011;11821;51.456;8.844;2024-01-10T01:33:33;14.82;;;8.18;;
23304;SDS011;11821;51.456;8.844;2024-01-10T01:35:59;14.73;;;8.50;;
23304;SDS011;11821;51.456;8.844;2024-01-10T01:38:26;21.52;;;9.23;;
23304;SDS011;11821;51.456;8.844;2024-01-10T01:40:52;15.82;;;8.07;;
23304;SDS011;11821;51.456;8.844;2024-01-10T01:43:20;16.38;;;7.95;;
23304;SDS011;11821;51.456;8.844;2024-01-10T01:45:53;13.88;;;8.30;;
23304;SDS011;11821;51.456;8.844;2024-01-10T01:48:21;20.60;;;10.50;;
23304;SDS011;11821;51.456;8.844;2024-01-10T01:50:49;14.32;;;8.82;;
23304;SDS011;11821;51.456;8.844;2024-01-10T01:53:16;16.77;;;9.20;;
23304;SDS011;11821;51.456;8.844;2024-01-10T01:55:44;17.48;;;8.85;;
23304;SDS011;11821;51.456;8.844;2024-01-10T01:58:11;18.95;;;7.78;;
23304;SDS011;11821;51.456;8.844;2024-01-10T02:00:38;12.02;;;8.38;;
23304;SDS011;11821;51.456;8.844;2024-01-10T02:03:05;15.43;;;8.93;;
23304;SDS011;11821;51.456;8.844;2024-01-10T02:05:32;18.60;;;10.13;;
23304;SDS011;11821;51.456;8.844;2024-01-10T02:07:58;14.05;;;8.30;;
23304;SDS011;11821;51.456;8.844;2024-01-10T02:10:25;17.88;;;9.65;;
23304;SDS011;11821;51.456;8.844;2024-01-10T02:12:51;15.18;;;8.73;;
23304;SDS011;11821;51.456;8.844;2024-01-10T02:15:18;18.00;;;9.82;;
23304;SDS011;11821;51.456;8.844;2024-01-10T02:17:45;20.63;;;9.52;;
23304;SDS011;11821;51.456;8.844;2024-01-10T02:20:12;19.17;;;9.70;;
23304;SDS011;11821;51.456;8.844;2024-01-10T02:22:39;20.27;;;10.88;;
23304;SDS011;11821;51.456;8.844;2024-01-10T02:25:07;17.10;;;9.02;;
23304;SDS011;11821;51.456;8.844;2024-01-10T02:27:34;18.35;;;9.35;;
23304;SDS011;11821;51.456;8.844;2024-01-10T02:30:02;19.88;;;10.50;;
23304;SDS011;11821;51.456;8.844;2024-01-10T02:32:29;17.50;;;9.30;;
23304;SDS011;11821;51.456;8.844;2024-01-10T02:34:55;18.05;;;8.40;;
23304;SDS011;11821;51.456;8.844;2024-01-10T02:37:22;14.63;;;7.85;;
23304;SDS011;11821;51.456;8.844;2024-01-10T02:39:48;10.20;;;6.38;;
23304;SDS011;11821;51.456;8.844;2024-01-10T02:42:15;15.73;;;7.15;;
23304;SDS011;11821;51.456;8.844;2024-01-10T02:44:42;16.60;;;9.20;;
23304;SDS011;11821;51.456;8.844;2024-01-10T02:47:09;22.45;;;13.30;;
23304;SDS011;11821;51.456;8.844;2024-01-10T02:49:36;25.55;;;16.15;;
23304;SDS011;11821;51.456;8.844;2024-01-10T02:52:03;19.67;;;13.65;;
23304;SDS011;11821;51.456;8.844;2024-01-10T02:54:29;25.15;;;15.15;;
23304;SDS011;11821;51.456;8.844;2024-01-10T02:56:56;21.33;;;14.07;;
23304;SDS011;11821;51.456;8.844;2024-01-10T02:59:22;26.92;;;13.60;;
23304;SDS011;11821;51.456;8.844;2024-01-10T03:01:49;28.98;;;14.00;;
23304;SDS011;11821;51.456;8.844;2024-01-10T03:04:15;28.23;;;17.25;;
23304;SDS011;11821;51.456;8.844;2024-01-10T03:06:42;29.33;;;16.42;;
23304;SDS011;11821;51.456;8.844;2024-01-10T03:09:09;28.00;;;16.02;;
23304;SDS011;11821;51.456;8.844;2024-01-10T03:11:35;22.13;;;13.07;;
23304;SDS011;11821;51.456;8.844;2024-01-10T03:14:11;18.00;;;12.20;;
23304;SDS011;11821;51.456;8.844;2024-01-10T03:16:37;16.70;;;11.02;;
23304;SDS011;11821;51.456;8.844;2024-01-10T03:19:04;18.63;;;12.27;;
23304;SDS011;11821;51.456;8.844;2024-01-10T03:21:31;23.90;;;15.60;;
23304;SDS011;11821;51.456;8.844;2024-01-10T03:23:58;40.15;;;23.23;;
23304;SDS011;11821;51.456;8.844;2024-01-10T03:26:25;54.13;;;26.42;;
23304;SDS011;11821;51.456;8.844;2024-01-10T03:28:52;56.78;;;27.52;;
23304;SDS011;11821;51.456;8.844;2024-01-10T03:31:19;54.13;;;26.15;;
23304;SDS011;11821;51.456;8.844;2024-01-10T03:33:46;52.67;;;27.15;;
23304;SDS011;11821;51.456;8.844;2024-01-10T03:36:13;53.78;;;26.40;;
23304;SDS011;11821;51.456;8.844;2024-01-10T03:38:40;57.67;;;26.83;;
23304;SDS011;11821;51.456;8.844;2024-01-10T03:41:06;45.80;;;24.67;;
23304;SDS011;11821;51.456;8.844;2024-01-10T03:43:33;64.90;;;29.08;;
23304;SDS011;11821;51.456;8.844;2024-01-10T03:45:59;70.22;;;29.50;;
23304;SDS011;11821;51.456;8.844;2024-01-10T03:48:26;74.57;;;33.05;;
23304;SDS011;11821;51.456;8.844;2024-01-10T03:50:52;68.72;;;29.77;;
23304;SDS011;11821;51.456;8.844;2024-01-10T03:53:19;73.35;;;30.15;;
23304;SDS011;11821;51.456;8.844;2024-01-10T03:55:45;79.82;;;30.17;;
23304;SDS011;11821;51.456;8.844;2024-01-10T03:58:12;90.90;;;35.92;;
23304;SDS011;11821;51.456;8.844;2024-01-10T04:00:38;91.63;;;36.33;;
23304;SDS011;11821;51.456;8.844;2024-01-10T04:03:05;88.22;;;37.28;;
23304;SDS011;11821;51.456;8.844;2024-01-10T04:05:32;75.53;;;33.63;;
23304;SDS011;11821;51.456;8.844;2024-01-10T04:07:58;80.18;;;34.53;;
23304;SDS011;11821;51.456;8.844;2024-01-10T04:10:25;77.78;;;34.35;;
23304;SDS011;11821;51.456;8.844;2024-01-10T04:12:51;65.70;;;31.70;;
23304;SDS011;11821;51.456;8.844;2024-01-10T04:15:18;66.47;;;31.52;;
23304;SDS011;11821;51.456;8.844;2024-01-10T04:17:45;65.38;;;32.47;;
23304;SDS011;11821;51.456;8.844;2024-01-10T04:20:12;67.63;;;31.15;;
23304;SDS011;11821;51.456;8.844;2024-01-10T04:22:38;32.72;;;19.45;;
23304;SDS011;11821;51.456;8.844;2024-01-10T04:25:05;36.35;;;23.23;;
23304;SDS011;11821;51.456;8.844;2024-01-10T04:27:32;38.25;;;23.90;;
23304;SDS011;11821;51.456;8.844;2024-01-10T04:29:59;51.38;;;27.83;;
23304;SDS011;11821;51.456;8.844;2024-01-10T04:32:25;59.05;;;27.75;;
23304;SDS011;11821;51.456;8.844;2024-01-10T04:34:52;40.08;;;23.17;;
23304;SDS011;11821;51.456;8.844;2024-01-10T04:37:18;42.22;;;22.90;;
23304;SDS011;11821;51.456;8.844;2024-01-10T04:39:45;40.78;;;25.15;;
23304;SDS011;11821;51.456;8.844;2024-01-10T04:42:12;47.30;;;24.20;;
23304;SDS011;11821;51.456;8.844;2024-01-10T04:44:38;47.10;;;23.58;;
23304;SDS011;11821;51.456;8.844;2024-01-10T04:47:05;51.67;;;26.95;;
23304;SDS011;11821;51.456;8.844;2024-01-10T04:49:32;54.45;;;27.33;;
23304;SDS011;11821;51.456;8.844;2024-01-10T04:52:00;43.83;;;25.27;;
23304;SDS011;11821;51.456;8.844;2024-01-10T04:54:26;31.83;;;20.02;;
23304;SDS011;11821;51.456;8.844;2024-01-10T04:56:53;36.00;;;21.77;;
23304;SDS011;11821;51.456;8.844;2024-01-10T04:59:19;35.50;;;20.60;;
23304;SDS011;11821;51.456;8.844;2024-01-10T05:01:46;32.40;;;19.85;;
23304;SDS011;11821;51.456;8.844;2024-01-10T05:04:12;39.78;;;24.25;;
23304;SDS011;11821;51.456;8.844;2024-01-10T05:06:39;43.72;;;23.67;;
23304;SDS011;11821;51.456;8.844;2024-01-10T05:09:06;44.78;;;23.45;;
23304;SDS011;11821;51.456;8.844;2024-01-10T05:11:33;38.10;;;22.80;;
23304;SDS011;11821;51.456;8.844;2024-01-10T05:14:01;38.97;;;22.45;;
23304;SDS011;11821;51.456;8.844;2024-01-10T05:16:28;48.33;;;27.13;;
23304;SDS011;11821;51.456;8.844;2024-01-10T05:18:55;61.50;;;26.83;;
23304;SDS011;11821;51.456;8.844;2024-01-10T05:21:21;63.60;;;30.17;;
23304;SDS011;11821;51.456;8.844;2024-01-10T05:23:48;56.45;;;28.13;;
23304;SDS011;11821;51.456;8.844;2024-01-10T05:26:14;61.78;;;31.75;;
23304;SDS011;11821;51.456;8.844;2024-01-10T05:28:41;52.58;;;28.40;;
23304;SDS011;11821;51.456;8.844;2024-01-10T05:31:07;51.50;;;27.80;;
23304;SDS011;11821;51.456;8.844;2024-01-10T05:33:34;54.50;;;29.95;;
23304;SDS011;11821;51.456;8.844;2024-01-10T05:36:01;50.72;;;27.92;;
23304;SDS011;11821;51.456;8.844;2024-01-10T05:38:27;55.38;;;31.67;;
23304;SDS011;11821;51.456;8.844;2024-01-10T05:40:54;56.92;;;28.15;;
23304;SDS011;11821;51.456;8.844;2024-01-10T05:43:20;52.35;;;28.65;;
23304;SDS011;11821;51.456;8.844;2024-01-10T05:45:47;46.47;;;26.58;;
23304;SDS011;11821;51.456;8.844;2024-01-10T05:48:13;55.40;;;29.80;;
23304;SDS011;11821;51.456;8.844;2024-01-10T05:50:40;42.92;;;22.58;;
23304;SDS011;11821;51.456;8.844;2024-01-10T05:53:06;47.85;;;23.15;;
23304;SDS011;11821;51.456;8.844;2024-01-10T05:55:34;50.33;;;25.00;;
23304;SDS011;11821;51.456;8.844;2024-01-10T05:58:02;40.60;;;22.60;;
23304;SDS011;11821;51.456;8.844;2024-01-10T06:00:28;37.95;;;21.98;;
23304;SDS011;11821;51.456;8.844;2024-01-10T06:02:55;44.42;;;24.30;;
23304;SDS011;11821;51.456;8.844;2024-01-10T06:05:21;40.20;;;23.27;;
23304;SDS011;11821;51.456;8.844;2024-01-10T06:07:48;47.63;;;28.08;;
23304;SDS011;11821;51.456;8.844;2024-01-10T06:10:14;50.35;;;25.33;;
23304;SDS011;11821;51.456;8.844;2024-01-10T06:12:41;37.40;;;23.73;;
23304;SDS011;11821;51.456;8.844;2024-01-10T06:15:08;44.25;;;26.58;;
23304;SDS011;11821;51.456;8.844;2024-01-10T06:17:35;42.30;;;25.15;;
23304;SDS011;11821;51.456;8.844;2024-01-10T06:20:01;52.05;;;26.52;;
23304;SDS011;11821;51.456;8.844;2024-01-10T06:22:29;56.25;;;29.50;;
23304;SDS011;11821;51.456;8.844;2024-01-10T06:24:55;37.92;;;21.98;;
23304;SDS011;11821;51.456;8.844;2024-01-10T06:27:22;46.65;;;24.35;;
23304;SDS011;11821;51.456;8.844;2024-01-10T06:29:49;50.53;;;26.05;;
23304;SDS011;11821;51.456;8.844;2024-01-10T06:32:15;64.80;;;29.17;;
23304;SDS011;11821;51.456;8.844;2024-01-10T06:34:42;57.63;;;27.73;;
23304;SDS011;11821;51.456;8.844;2024-01-10T06:37:08;61.67;;;28.08;;
23304;SDS011;11821;51.456;8.844;2024-01-10T06:39:35;56.35;;;26.77;;
23304;SDS011;11821;51.456;8.844;2024-01-10T06:42:01;72.07;;;32.55;;
23304;SDS011;11821;51.456;8.844;2024-01-10T06:44:31;82.22;;;30.52;;
23304;SDS011;11821;51.456;8.844;2024-01-10T06:46:59;61.88;;;27.60;;
23304;SDS011;11821;51.456;8.844;2024-01-10T06:49:25;64.82;;;32.97;;
23304;SDS011;11821;51.456;8.844;2024-01-10T06:51:53;62.97;;;27.75;;
23304;SDS011;11821;51.456;8.844;2024-01-10T06:54:19;62.42;;;26.27;;
23304;SDS011;11821;51.456;8.844;2024-01-10T06:56:46;48.15;;;23.73;;
23304;SDS011;11821;51.456;8.844;2024-01-10T06:59:12;44.53;;;24.05;;
23304;SDS011;11821;51.456;8.844;2024-01-10T07:01:39;47.53;;;25.70;;
23304;SDS011;11821;51.456;8.844;2024-01-10T07:04:05;41.58;;;23.52;;
23304;SDS011;11821;51.456;8.844;2024-01-10T07:06:32;39.08;;;21.83;;
23304;SDS011;11821;51.456;8.844;2024-01-10T07:08:58;39.97;;;22.83;;
23304;SDS011;11821;51.456;8.844;2024-01-10T07:11:30;39.78;;;21.05;;
23304;SDS011;11821;51.456;8.844;2024-01-10T07:13:56;40.88;;;22.55;;
23304;SDS011;11821;51.456;8.844;2024-01-10T07:16:24;36.38;;;22.05;;
23304;SDS011;11821;51.456;8.844;2024-01-10T07:18:51;33.08;;;21.42;;
23304;SDS011;11821;51.456;8.844;2024-01-10T07:21:17;42.25;;;23.65;;
23304;SDS011;11821;51.456;8.844;2024-01-10T07:23:44;50.08;;;25.42;;
23304;SDS011;11821;51.456;8.844;2024-01-10T07:26:12;23.13;;;14.32;;
23304;SDS011;11821;51.456;8.844;2024-01-10T07:28:40;42.20;;;24.70;;
23304;SDS011;11821;51.456;8.844;2024-01-10T07:31:07;39.90;;;23.65;;
23304;SDS011;11821;51.456;8.844;2024-01-10T07:33:34;51.33;;;26.17;;
23304;SDS011;11821;51.456;8.844;2024-01-10T07:36:00;44.15;;;25.20;;
23304;SDS011;11821;51.456;8.844;2024-01-10T07:38:27;53.60;;;30.55;;
23304;SDS011;11821;51.456;8.844;2024-01-10T07:40:54;45.88;;;25.10;;
23304;SDS011;11821;51.456;8.844;2024-01-10T07:43:20;43.47;;;25.02;;
23304;SDS011;11821;51.456;8.844;2024-01-10T07:45:48;42.70;;;24.40;;
23304;SDS011;11821;51.456;8.844;2024-01-10T07:48:14;45.85;;;27.50;;
23304;SDS011;11821;51.456;8.844;2024-01-10T07:50:41;46.00;;;24.17;;
23304;SDS011;11821;51.456;8.844;2024-01-10T07:53:07;46.65;;;24.77;;
23304;SDS011;11821;51.456;8.844;2024-01-10T07:55:34;37.25;;;23.35;;
23304;SDS011;11821;51.456;8.844;2024-01-10T07:58:00;50.28;;;25.65;;
23304;SDS011;11821;51.456;8.844;2024-01-10T08:00:27;43.15;;;22.77;;
23304;SDS011;11821;51.456;8.844;2024-01-10T08:02:55;40.85;;;22.30;;
23304;SDS011;11821;51.456;8.844;2024-01-10T08:05:23;52.63;;;24.80;;
23304;SDS011;11821;51.456;8.844;2024-01-10T08:07:50;45.58;;;24.00;;
23304;SDS011;11821;51.456;8.844;2024-01-10T08:10:17;46.67;;;25.52;;
23304;SDS011;11821;51.456;8.844;2024-01-10T08:12:43;50.38;;;26.20;;
23304;SDS011;11821;51.456;8.844;2024-01-10T08:15:10;52.40;;;27.48;;
23304;SDS011;11821;51.456;8.844;2024-01-10T08:17:36;46.42;;;23.48;;
23304;SDS011;11821;51.456;8.844;2024-01-10T08:20:06;60.55;;;27.10;;
23304;SDS011;11821;51.456;8.844;2024-01-10T08:22:33;50.95;;;20.58;;
23304;SDS011;11821;51.456;8.844;2024-01-10T08:25:00;17.35;;;9.88;;
23304;SDS011;11821;51.456;8.844;2024-01-10T08:27:28;25.60;;;12.10;;
23304;SDS011;11821;51.456;8.844;2024-01-10T08:29:55;25.77;;;10.48;;
23304;SDS011;11821;51.456;8.844;2024-01-10T08:32:21;22.33;;;11.70;;
23304;SDS011;11821;51.456;8.844;2024-01-10T08:34:48;20.98;;;10.30;;
23304;SDS011;11821;51.456;8.844;2024-01-10T08:37:14;22.50;;;11.85;;
23304;SDS011;11821;51.456;8.844;2024-01-10T08:39:43;41.35;;;14.52;;
23304;SDS011;11821;51.456;8.844;2024-01-10T08:42:12;33.92;;;16.50;;
23304;SDS011;11821;51.456;8.844;2024-01-10T08:44:39;34.65;;;14.13;;
23304;SDS011;11821;51.456;8.844;2024-01-10T08:47:05;77.93;;;22.08;;
23304;SDS011;11821;51.456;8.844;2024-01-10T08:49:32;69.57;;;22.33;;
23304;SDS011;11821;51.456;8.844;2024-01-10T08:51:58;43.38;;;18.33;;
23304;SDS011;11821;51.456;8.844;2024-01-10T08:54:25;50.92;;;18.15;;
23304;SDS011;11821;51.456;8.844;2024-01-10T08:56:52;48.55;;;17.17;;
23304;SDS011;11821;51.456;8.844;2024-01-10T08:59:19;50.28;;;19.75;;
23304;SDS011;11821;51.456;8.844;2024-01-10T09:01:45;43.42;;;20.35;;
23304;SDS011;11821;51.456;8.844;2024-01-10T09:04:12;43.55;;;18.50;;
23304;SDS011;11821;51.456;8.844;2024-01-10T09:06:38;42.05;;;19.52;;
23304;SDS011;11821;51.456;8.844;2024-01-10T09:09:05;43.72;;;20.38;;
23304;SDS011;11821;51.456;8.844;2024-01-10T09:11:32;32.10;;;14.60;;
23304;SDS011;11821;51.456;8.844;2024-01-10T09:13:59;35.97;;;18.15;;
23304;SDS011;11821;51.456;8.844;2024-01-10T09:16:26;32.42;;;16.98;;
23304;SDS011;11821;51.456;8.844;2024-01-10T09:18:52;39.97;;;22.83;;
23304;SDS011;11821;51.456;8.844;2024-01-10T09:21:22;66.50;;;26.70;;
23304;SDS011;11821;51.456;8.844;2024-01-10T09:23:49;47.10;;;23.13;;
23304;SDS011;11821;51.456;8.844;2024-01-10T09:26:17;45.55;;;22.50;;
23304;SDS011;11821;51.456;8.844;2024-01-10T09:28:44;34.90;;;19.98;;
23304;SDS011;11821;51.456;8.844;2024-01-10T09:31:10;34.85;;;21.23;;
23304;SDS011;11821;51.456;8.844;2024-01-10T09:33:37;38.72;;;20.45;;
23304;SDS011;11821;51.456;8.844;2024-01-10T09:36:04;31.02;;;16.85;;
23304;SDS011;11821;51.456;8.844;2024-01-10T09:38:34;35.80;;;15.93;;
23304;SDS011;11821;51.456;8.844;2024-01-10T09:41:01;22.08;;;10.85;;
23304;SDS011;11821;51.456;8.844;2024-01-10T09:43:32;34.53;;;14.85;;
23304;SDS011;11821;51.456;8.844;2024-01-10T09:45:59;34.90;;;17.45;;
23304;SDS011;11821;51.456;8.844;2024-01-10T09:48:27;35.88;;;18.73;;
23304;SDS011;11821;51.456;8.844;2024-01-10T09:50:53;30.75;;;12.88;;
23304;SDS011;11821;51.456;8.844;2024-01-10T09:53:23;27.58;;;14.43;;
23304;SDS011;11821;51.456;8.844;2024-01-10T09:55:50;35.25;;;14.10;;
23304;SDS011;11821;51.456;8.844;2024-01-10T09:58:17;37.17;;;14.57;;
23304;SDS011;11821;51.456;8.844;2024-01-10T10:00:44;36.10;;;15.82;;
23304;SDS011;11821;51.456;8.844;2024-01-10T10:03:13;39.42;;;16.23;;
23304;SDS011;11821;51.456;8.844;2024-01-10T10:08:10;36.22;;;15.10;;
23304;SDS011;11821;51.456;8.844;2024-01-10T10:10:36;36.83;;;14.50;;
23304;SDS011;11821;51.456;8.844;2024-01-10T10:13:09;36.20;;;15.18;;
23304;SDS011;11821;51.456;8.844;2024-01-10T10:15:40;42.03;;;15.88;;
23304;SDS011;11821;51.456;8.844;2024-01-10T10:18:13;38.20;;;15.38;;
23304;SDS011;11821;51.456;8.844;2024-01-10T10:20:40;37.50;;;16.52;;
23304;SDS011;11821;51.456;8.844;2024-01-10T10:23:07;44.60;;;18.17;;
23304;SDS011;11821;51.456;8.844;2024-01-10T10:25:44;53.47;;;18.38;;
23304;SDS011;11821;51.456;8.844;2024-01-10T10:28:11;47.40;;;19.75;;
23304;SDS011;11821;51.456;8.844;2024-01-10T10:30:38;38.67;;;16.83;;
23304;SDS011;11821;51.456;8.844;2024-01-10T10:33:05;35.15;;;16.42;;
23304;SDS011;11821;51.456;8.844;2024-01-10T10:35:34;46.05;;;16.90;;
23304;SDS011;11821;51.456;8.844;2024-01-10T10:38:01;41.72;;;16.73;;
23304;SDS011;11821;51.456;8.844;2024-01-10T10:40:28;49.00;;;17.50;;
23304;SDS011;11821;51.456;8.844;2024-01-10T10:42:56;39.10;;;16.17;;
23304;SDS011;11821;51.456;8.844;2024-01-10T10:45:22;38.22;;;14.40;;
23304;SDS011;11821;51.456;8.844;2024-01-10T10:47:59;34.65;;;15.65;;
23304;SDS011;11821;51.456;8.844;2024-01-10T10:50:28;43.80;;;15.00;;
23304;SDS011;11821;51.456;8.844;2024-01-10T10:52:55;35.20;;;17.08;;
23304;SDS011;11821;51.456;8.844;2024-01-10T10:55:23;37.88;;;16.85;;
23304;SDS011;11821;51.456;8.844;2024-01-10T10:57:52;40.50;;;16.90;;
23304;SDS011;11821;51.456;8.844;2024-01-10T11:00:20;37.80;;;16.63;;
23304;SDS011;11821;51.456;8.844;2024-01-10T11:02:53;41.30;;;17.05;;
23304;SDS011;11821;51.456;8.844;2024-01-10T11:05:20;40.50;;;17.65;;
23304;SDS011;11821;51.456;8.844;2024-01-10T11:07:47;36.60;;;16.02;;
23304;SDS011;11821;51.456;8.844;2024-01-10T11:10:16;33.35;;;14.55;;
23304;SDS011;11821;51.456;8.844;2024-01-10T11:25:44;38.25;;;15.43;;
23304;SDS011;11821;51.456;8.844;2024-01-10T11:28:12;30.63;;;14.48;;
23304;SDS011;11821;51.456;8.844;2024-01-10T11:30:48;36.00;;;15.98;;
23304;SDS011;11821;51.456;8.844;2024-01-10T11:38:41;30.33;;;15.43;;
23304;SDS011;11821;51.456;8.844;2024-01-10T11:41:12;38.58;;;16.00;;
23304;SDS011;11821;51.456;8.844;2024-01-10T11:43:38;35.03;;;14.40;;
23304;SDS011;11821;51.456;8.844;2024-01-10T11:46:05;28.50;;;13.02;;
23304;SDS011;11821;51.456;8.844;2024-01-10T11:48:32;28.15;;;13.18;;
23304;SDS011;11821;51.456;8.844;2024-01-10T11:50:59;27.70;;;12.85;;
23304;SDS011;11821;51.456;8.844;2024-01-10T11:53:41;29.55;;;13.65;;
23304;SDS011;11821;51.456;8.844;2024-01-10T11:56:12;30.95;;;13.95;;
23304;SDS011;11821;51.456;8.844;2024-01-10T11:58:53;27.73;;;11.90;;
23304;SDS011;11821;51.456;8.844;2024-01-10T12:01:20;27.70;;;12.07;;
23304;SDS011;11821;51.456;8.844;2024-01-10T12:03:48;27.48;;;11.73;;
23304;SDS011;11821;51.456;8.844;2024-01-10T12:06:18;21.92;;;11.52;;
23304;SDS011;11821;51.456;8.844;2024-01-10T12:08:45;22.30;;;11.65;;
23304;SDS011;11821;51.456;8.844;2024-01-10T12:11:12;23.38;;;11.13;;
23304;SDS011;11821;51.456;8.844;2024-01-10T12:13:38;30.75;;;13.02;;
23304;SDS011;11821;51.456;8.844;2024-01-10T12:16:05;27.45;;;10.85;;
23304;SDS011;11821;51.456;8.844;2024-01-10T12:18:32;28.92;;;12.30;;
23304;SDS011;11821;51.456;8.844;2024-01-10T12:20:59;31.58;;;13.55;;
23304;SDS011;11821;51.456;8.844;2024-01-10T12:23:26;25.48;;;11.70;;
23304;SDS011;11821;51.456;8.844;2024-01-10T12:25:57;33.72;;;13.35;;
23304;SDS011;11821;51.456;8.844;2024-01-10T12:28:24;30.23;;;12.85;;
23304;SDS011;11821;51.456;8.844;2024-01-10T12:30:50;23.02;;;11.88;;
23304;SDS011;11821;51.456;8.844;2024-01-10T12:33:21;25.98;;;12.45;;
23304;SDS011;11821;51.456;8.844;2024-01-10T12:38:48;25.60;;;13.40;;
23304;SDS011;11821;51.456;8.844;2024-01-10T12:41:15;20.88;;;11.18;;
23304;SDS011;11821;51.456;8.844;2024-01-10T12:43:42;23.77;;;13.00;;
23304;SDS011;11821;51.456;8.844;2024-01-10T12:46:09;23.50;;;10.25;;
23304;SDS011;11821;51.456;8.844;2024-01-10T12:48:40;23.23;;;11.27;;
23304;SDS011;11821;51.456;8.844;2024-01-10T12:51:11;20.73;;;11.07;;
23304;SDS011;11821;51.456;8.844;2024-01-10T12:53:39;22.55;;;10.80;;
23304;SDS011;11821;51.456;8.844;2024-01-10T12:56:06;17.80;;;9.80;;
23304;SDS011;11821;51.456;8.844;2024-01-10T12:58:33;24.15;;;10.88;;
23304;SDS011;11821;51.456;8.844;2024-01-10T13:01:01;25.58;;;11.63;;
23304;SDS011;11821;51.456;8.844;2024-01-10T13:03:29;25.95;;;10.82;;
23304;SDS011;11821;51.456;8.844;2024-01-10T13:05:55;25.95;;;11.75;;
23304;SDS011;11821;51.456;8.844;2024-01-10T13:08:22;26.98;;;12.85;;
23304;SDS011;11821;51.456;8.844;2024-01-10T13:10:48;29.50;;;12.77;;
23304;SDS011;11821;51.456;8.844;2024-01-10T13:13:15;27.17;;;11.18;;
23304;SDS011;11821;51.456;8.844;2024-01-10T13:15:43;23.45;;;10.23;;
23304;SDS011;11821;51.456;8.844;2024-01-10T13:18:11;30.13;;;13.05;;
23304;SDS011;11821;51.456;8.844;2024-01-10T13:20:38;22.10;;;11.38;;
23304;SDS011;11821;51.456;8.844;2024-01-10T13:23:04;22.08;;;10.55;;
23304;SDS011;11821;51.456;8.844;2024-01-10T13:25:31;26.23;;;12.63;;
23304;SDS011;11821;51.456;8.844;2024-01-10T13:27:58;25.40;;;12.07;;
23304;SDS011;11821;51.456;8.844;2024-01-10T13:30:24;26.83;;;12.55;;
23304;SDS011;11821;51.456;8.844;2024-01-10T13:32:51;23.17;;;11.13;;
23304;SDS011;11821;51.456;8.844;2024-01-10T13:35:18;25.02;;;13.15;;
23304;SDS011;11821;51.456;8.844;2024-01-10T13:37:45;29.38;;;12.02;;
23304;SDS011;11821;51.456;8.844;2024-01-10T13:40:12;27.45;;;12.27;;
23304;SDS011;11821;51.456;8.844;2024-01-10T13:42:39;32.10;;;12.45;;
23304;SDS011;11821;51.456;8.844;2024-01-10T13:45:06;20.33;;;10.65;;
23304;SDS011;11821;51.456;8.844;2024-01-10T13:47:42;25.23;;;11.95;;
23304;SDS011;11821;51.456;8.844;2024-01-10T13:50:09;25.65;;;12.15;;
23304;SDS011;11821;51.456;8.844;2024-01-10T13:52:36;29.42;;;11.82;;
23304;SDS011;11821;51.456;8.844;2024-01-10T13:55:02;20.27;;;10.55;;
23304;SDS011;11821;51.456;8.844;2024-01-10T13:57:30;23.80;;;11.07;;
23304;SDS011;11821;51.456;8.844;2024-01-10T14:00:00;19.92;;;9.80;;
23304;SDS011;11821;51.456;8.844;2024-01-10T14:02:37;26.20;;;11.82;;
23304;SDS011;11821;51.456;8.844;2024-01-10T14:05:04;23.73;;;11.75;;
23304;SDS011;11821;51.456;8.844;2024-01-10T14:07:32;31.75;;;11.75;;
23304;SDS011;11821;51.456;8.844;2024-01-10T14:09:58;27.90;;;12.52;;
23304;SDS011;11821;51.456;8.844;2024-01-10T14:12:26;26.83;;;12.50;;
23304;SDS011;11821;51.456;8.844;2024-01-10T14:14:53;30.23;;;12.82;;
23304;SDS011;11821;51.456;8.844;2024-01-10T14:17:21;24.92;;;12.82;;
23304;SDS011;11821;51.456;8.844;2024-01-10T14:19:47;25.33;;;11.43;;
23304;SDS011;11821;51.456;8.844;2024-01-10T14:22:16;30.33;;;12.95;;
23304;SDS011;11821;51.456;8.844;2024-01-10T14:24:43;28.63;;;13.38;;
23304;SDS011;11821;51.456;8.844;2024-01-10T14:27:10;30.20;;;12.98;;
23304;SDS011;11821;51.456;8.844;2024-01-10T14:29:36;27.30;;;11.68;;
23304;SDS011;11821;51.456;8.844;2024-01-10T14:32:03;35.55;;;14.40;;
23304;SDS011;11821;51.456;8.844;2024-01-10T14:34:30;33.50;;;13.80;;
23304;SDS011;11821;51.456;8.844;2024-01-10T14:36:56;25.65;;;11.65;;
23304;SDS011;11821;51.456;8.844;2024-01-10T14:39:23;31.67;;;11.82;;
23304;SDS011;11821;51.456;8.844;2024-01-10T14:41:49;26.55;;;12.43;;
23304;SDS011;11821;51.456;8.844;2024-01-10T14:44:16;30.92;;;13.75;;
23304;SDS011;11821;51.456;8.844;2024-01-10T14:46:43;30.77;;;13.25;;